Time;durP1;ratioP1;P1;durP2;ratioP2;P2;SDS_P1;SDS_P2;PMS_P1;PMS_P2;Temp;Humidity;BMP_temperature;BMP_pressure;BME280_temperature;BME280_humidity;BME280_pressure;Samples;Min_cycle;Max_cycle;Signal;HPM_P1;HPM_P2
2021/01/03 00:02:07;;;;;;;68.25;34.65;;;;;;;-143.98;100.00;68091.63;6194824;23;20028;-84
2021/01/03 00:04:34;;;;;;;73.68;35.53;;;;;;;-143.98;100.00;68091.63;6220749;23;20028;-84
2021/01/03 00:07:01;;;;;;;71.55;35.10;;;;;;;-143.98;100.00;68091.63;6219535;23;20028;-84
2021/01/03 00:09:28;;;;;;;67.25;33.47;;;;;;;-143.98;100.00;68091.63;6193341;23;20055;-84
2021/01/03 00:11:57;;;;;;;76.55;36.58;;;;;;;-143.98;100.00;68091.63;6218953;23;20027;-85
2021/01/03 00:14:36;;;;;;;72.22;35.47;;;;;;;-143.98;100.00;68091.63;6195757;23;20039;-83
2021/01/03 00:17:05;;;;;;;65.10;33.25;;;;;;;-143.98;100.00;68091.63;6196551;23;20538;-83
2021/01/03 00:19:31;;;;;;;66.22;33.45;;;;;;;-143.98;100.00;68091.63;6197916;23;20043;-83
2021/01/03 00:21:57;;;;;;;66.72;34.25;;;;;;;-143.98;100.00;68091.63;6209234;23;20079;-83
2021/01/03 00:24:30;;;;;;;64.65;33.63;;;;;;;-143.98;100.00;68091.63;6233113;23;20025;-84
2021/01/03 00:26:57;;;;;;;64.53;33.00;;;;;;;-143.98;100.00;68091.63;6204819;23;20035;-85
2021/01/03 00:29:23;;;;;;;64.57;34.10;;;;;;;-143.98;100.00;68091.63;6197954;23;20032;-83
2021/01/03 00:31:50;;;;;;;66.78;32.30;;;;;;;-143.98;100.00;68091.63;6196943;23;20016;-83
2021/01/03 00:34:20;;;;;;;62.30;31.40;;;;;;;-143.98;100.00;68091.63;6221030;23;20024;-83
2021/01/03 00:36:53;;;;;;;65.85;32.25;;;;;;;-143.98;100.00;68091.63;6221099;23;20294;-83
2021/01/03 00:39:20;;;;;;;66.85;32.72;;;;;;;-143.98;100.00;68091.63;6218446;23;20055;-83
2021/01/03 00:41:50;;;;;;;60.97;31.30;;;;;;;-143.98;100.00;68091.63;6193511;23;20349;-83
2021/01/03 00:44:31;;;;;;;65.20;31.95;;;;;;;-143.98;100.00;68091.63;6219441;23;20029;-83
2021/01/03 00:47:00;;;;;;;60.05;31.55;;;;;;;-143.98;100.00;68091.63;6220391;23;20243;-83
2021/01/03 00:49:27;;;;;;;63.03;32.03;;;;;;;-143.98;100.00;68091.63;6195527;23;20043;-83
2021/01/03 00:51:53;;;;;;;59.20;31.20;;;;;;;-143.98;100.00;68091.63;6221084;23;20029;-83
2021/01/03 00:54:19;;;;;;;54.75;30.85;;;;;;;-143.98;100.00;68091.63;6195514;23;20032;-83
2021/01/03 00:56:45;;;;;;;61.38;31.13;;;;;;;-143.98;100.00;68091.63;6222644;23;20029;-84
2021/01/03 00:59:21;;;;;;;61.55;30.45;;;;;;;-143.98;100.00;68091.63;6221767;23;20039;-84
2021/01/03 01:01:48;;;;;;;61.97;30.63;;;;;;;-143.98;100.00;68091.63;6222484;23;20075;-84
2021/01/03 01:04:14;;;;;;;59.45;29.83;;;;;;;-143.98;100.00;68091.63;6221780;23;20112;-85
2021/01/03 01:06:41;;;;;;;67.55;32.15;;;;;;;-143.98;100.00;68091.63;6196315;23;20033;-84
2021/01/03 01:09:07;;;;;;;60.22;31.00;;;;;;;-143.98;100.00;68091.63;6197718;23;20044;-84
2021/01/03 01:11:38;;;;;;;67.43;30.60;;;;;;;-143.98;100.00;68091.63;6223862;23;20107;-83
2021/01/03 01:14:04;;;;;;;63.20;30.80;;;;;;;-143.98;100.00;68091.63;6198513;23;20044;-83
2021/01/03 01:16:30;;;;;;;65.18;31.55;;;;;;;-143.98;100.00;68091.63;6198716;23;20095;-83
2021/01/03 01:18:57;;;;;;;57.85;28.92;;;;;;;-143.98;100.00;68091.63;6197918;23;20337;-83
2021/01/03 01:21:27;;;;;;;55.42;27.90;;;;;;;-143.98;100.00;68091.63;6224196;23;20052;-83
2021/01/03 01:23:53;;;;;;;52.85;26.98;;;;;;;-143.98;100.00;68091.63;6223841;23;20066;-83
2021/01/03 01:26:20;;;;;;;56.97;27.08;;;;;;;-143.98;100.00;68091.63;6222221;23;20036;-83
2021/01/03 01:28:59;;;;;;;51.20;26.15;;;;;;;-143.98;100.00;68091.63;6198412;23;20024;-83
2021/01/03 01:31:26;;;;;;;53.45;27.33;;;;;;;-143.98;100.00;68091.63;6222174;23;20028;-83
2021/01/03 01:33:52;;;;;;;54.30;26.48;;;;;;;-143.98;100.00;68091.63;6197679;23;20036;-83
2021/01/03 01:36:18;;;;;;;60.40;28.30;;;;;;;-143.98;100.00;68091.63;6221837;23;20306;-83
2021/01/03 01:38:48;;;;;;;56.25;27.70;;;;;;;-143.98;100.00;68091.63;6197701;23;20060;-83
2021/01/03 01:41:21;;;;;;;47.53;26.65;;;;;;;-143.98;100.00;68091.63;6226004;23;20024;-83
2021/01/03 01:43:47;;;;;;;49.17;26.42;;;;;;;-143.98;100.00;68091.63;6222583;23;20032;-83
2021/01/03 01:46:55;;;;;;;52.22;26.30;;;;;;;-143.98;100.00;68091.63;6197766;23;20057;-84
2021/01/03 01:49:24;;;;;;;49.42;26.73;;;;;;;-143.98;100.00;68091.63;6112017;23;20065;-83
2021/01/03 01:51:56;;;;;;;50.85;26.42;;;;;;;-143.98;100.00;68091.63;6208297;23;20067;-83
2021/01/03 01:54:33;;;;;;;54.97;27.05;;;;;;;-143.98;100.00;68091.63;6221480;23;20032;-83
2021/01/03 01:57:11;;;;;;;56.08;27.48;;;;;;;-143.98;100.00;68091.63;6220856;23;20028;-81
2021/01/03 01:59:41;;;;;;;55.38;26.90;;;;;;;-143.98;100.00;68091.63;6198467;23;20258;-81
2021/01/03 02:02:18;;;;;;;54.38;27.23;;;;;;;-143.98;100.00;68091.63;6231211;23;20039;-83
2021/01/03 02:05:24;;;;;;;54.28;25.13;;;;;;;-143.98;100.00;68091.63;6208259;23;20016;-81
2021/01/03 02:08:09;;;;;;;57.40;26.85;;;;;;;-143.98;100.00;68091.63;6222361;23;20034;-81
2021/01/03 02:10:44;;;;;;;55.35;27.52;;;;;;;-143.98;100.00;68091.63;6196411;23;20024;-83
2021/01/03 02:13:28;;;;;;;61.75;27.55;;;;;;;-143.98;100.00;68091.63;6223745;23;20035;-81
2021/01/03 02:16:04;;;;;;;51.60;25.63;;;;;;;-143.98;100.00;68091.63;6221927;23;20024;-83
2021/01/03 02:18:36;;;;;;;51.25;25.73;;;;;;;-143.98;100.00;68091.63;6223902;23;20288;-84
2021/01/03 02:21:12;;;;;;;50.85;26.95;;;;;;;-143.98;100.00;68091.63;6197437;23;20414;-84
2021/01/03 02:23:49;;;;;;;58.88;27.42;;;;;;;-143.98;100.00;68091.63;6200067;23;20029;-84
2021/01/03 02:26:20;;;;;;;49.35;24.75;;;;;;;-143.98;100.00;68091.63;6228387;23;20032;-84
2021/01/03 02:28:51;;;;;;;52.45;26.30;;;;;;;-143.98;100.00;68091.63;6221644;23;20034;-84
2021/01/03 02:31:23;;;;;;;52.60;25.02;;;;;;;-143.98;100.00;68091.63;6195428;23;20028;-84
2021/01/03 02:34:05;;;;;;;54.88;26.27;;;;;;;-143.98;100.00;68091.63;6195525;23;20111;-84
2021/01/03 02:36:36;;;;;;;48.72;25.15;;;;;;;-143.98;100.00;68091.63;6196675;23;20028;-84
2021/01/03 02:39:32;;;;;;;51.92;24.98;;;;;;;-143.98;100.00;68091.63;6196452;23;20029;-84
2021/01/03 02:42:01;;;;;;;47.97;25.10;;;;;;;-143.98;100.00;68091.63;6215451;23;20038;-84
2021/01/03 02:44:28;;;;;;;45.78;23.58;;;;;;;-143.98;100.00;68091.63;6219638;23;20024;-85
2021/01/03 02:46:56;;;;;;;48.03;24.30;;;;;;;-143.98;100.00;68091.63;6222994;23;20024;-84
2021/01/03 02:49:23;;;;;;;50.17;25.67;;;;;;;-143.98;100.00;68091.63;6197020;23;20036;-84
2021/01/03 02:52:03;;;;;;;51.20;23.73;;;;;;;-143.98;100.00;68091.63;6221867;23;20032;-84
2021/01/03 02:54:29;;;;;;;47.85;23.33;;;;;;;-143.98;100.00;68091.63;6228298;23;20029;-84
2021/01/03 02:56:55;;;;;;;48.92;24.27;;;;;;;-143.98;100.00;68091.63;6242766;22;20023;-83
2021/01/03 02:59:25;;;;;;;49.75;23.65;;;;;;;-143.98;100.00;68091.63;6241348;23;20043;-84
2021/01/03 03:01:52;;;;;;;53.08;26.85;;;;;;;-143.98;100.00;68091.63;6223468;23;20310;-84
2021/01/03 03:04:22;;;;;;;47.47;24.95;;;;;;;-143.98;100.00;68091.63;6197342;23;20028;-84
2021/01/03 03:06:48;;;;;;;50.28;24.77;;;;;;;-143.98;100.00;68091.63;6222689;23;20035;-84
2021/01/03 03:09:15;;;;;;;57.58;24.65;;;;;;;-143.98;100.00;68091.63;6240809;23;20060;-84
2021/01/03 03:11:51;;;;;;;50.95;25.75;;;;;;;-143.98;100.00;68091.63;6211641;23;20367;-84
2021/01/03 03:14:17;;;;;;;46.70;23.40;;;;;;;-143.98;100.00;68091.63;6220530;23;20425;-84
2021/01/03 03:16:43;;;;;;;50.28;24.20;;;;;;;-143.98;100.00;68091.63;6195537;23;20029;-84
2021/01/03 03:19:09;;;;;;;47.47;23.08;;;;;;;-143.98;100.00;68091.63;6195257;23;20343;-83
2021/01/03 03:21:38;;;;;;;52.30;23.25;;;;;;;-143.98;100.00;68091.63;6223221;23;20025;-83
2021/01/03 03:24:06;;;;;;;53.13;23.13;;;;;;;-143.98;100.00;68091.63;6197330;23;20091;-83
2021/01/03 03:26:32;;;;;;;47.63;24.65;;;;;;;-143.98;100.00;68091.63;6196775;23;20020;-84
2021/01/03 03:28:58;;;;;;;55.10;25.20;;;;;;;-143.98;100.00;68091.63;6221047;23;20028;-84
2021/01/03 03:31:27;;;;;;;47.83;23.95;;;;;;;-143.98;100.00;68091.63;6222213;23;20107;-83
2021/01/03 03:33:53;;;;;;;49.17;24.20;;;;;;;-143.98;100.00;68091.63;6195664;23;20027;-83
2021/01/03 03:36:20;;;;;;;49.10;24.10;;;;;;;-143.98;100.00;68091.63;6220743;23;20406;-84
2021/01/03 03:38:47;;;;;;;45.42;24.45;;;;;;;-143.98;100.00;68091.63;6195175;23;20078;-82
2021/01/03 03:41:24;;;;;;;53.63;25.20;;;;;;;-143.98;100.00;68091.63;6221772;23;20314;-82
2021/01/03 03:43:51;;;;;;;46.90;23.00;;;;;;;-143.98;100.00;68091.63;6196650;23;20024;-83
2021/01/03 03:46:17;;;;;;;50.53;23.50;;;;;;;-143.98;100.00;68091.63;6195973;23;20041;-83
2021/01/03 03:48:45;;;;;;;49.55;24.05;;;;;;;-143.98;100.00;68091.63;6220907;23;20076;-83
2021/01/03 03:51:21;;;;;;;47.55;22.83;;;;;;;-143.98;100.00;68091.63;6221341;23;20024;-83
2021/01/03 03:53:48;;;;;;;51.63;24.85;;;;;;;-143.98;100.00;68091.63;6220857;23;20032;-83
2021/01/03 03:56:15;;;;;;;48.25;23.08;;;;;;;-143.98;100.00;68091.63;6221321;23;20028;-83
2021/01/03 03:58:44;;;;;;;49.40;22.27;;;;;;;-143.98;100.00;68091.63;6219799;23;20282;-83
2021/01/03 04:01:10;;;;;;;49.03;23.35;;;;;;;-143.98;100.00;68091.63;6195010;23;20039;-82
2021/01/03 04:03:46;;;;;;;48.78;23.73;;;;;;;-143.98;100.00;68091.63;6220239;23;20032;-83
2021/01/03 04:06:13;;;;;;;50.78;23.38;;;;;;;-143.98;100.00;68091.63;6171210;23;20040;-83
2021/01/03 04:08:39;;;;;;;49.30;24.35;;;;;;;-143.98;100.00;68091.63;6195673;23;20039;-83
2021/01/03 04:11:06;;;;;;;46.30;24.25;;;;;;;-143.98;100.00;68091.63;6219964;23;20048;-83
2021/01/03 04:13:36;;;;;;;54.97;24.23;;;;;;;-143.98;100.00;68091.63;6196235;23;20398;-83
2021/01/03 04:16:07;;;;;;;51.08;24.13;;;;;;;-143.98;100.00;68091.63;6171635;23;20028;-83
2021/01/03 04:18:33;;;;;;;49.83;22.65;;;;;;;-143.98;100.00;68091.63;6195341;23;20032;-83
2021/01/03 04:21:02;;;;;;;50.83;23.92;;;;;;;-143.98;100.00;68091.63;6193095;23;20025;-83
2021/01/03 04:23:29;;;;;;;50.05;24.77;;;;;;;-143.98;100.00;68091.63;6219047;23;20029;-83
2021/01/03 04:25:58;;;;;;;51.85;24.70;;;;;;;-143.98;100.00;68091.63;6219452;23;20040;-83
2021/01/03 04:28:25;;;;;;;52.70;23.88;;;;;;;-143.98;100.00;68091.63;6220265;23;20563;-83
2021/01/03 04:30:52;;;;;;;50.25;24.58;;;;;;;-143.98;100.00;68091.63;6222531;23;20052;-83
2021/01/03 04:33:18;;;;;;;50.55;24.73;;;;;;;-143.98;100.00;68091.63;6194878;23;20104;-83
2021/01/03 04:35:44;;;;;;;56.22;25.15;;;;;;;-143.98;100.00;68091.63;6223080;23;20047;-83
2021/01/03 04:38:11;;;;;;;49.55;24.95;;;;;;;-143.98;100.00;68091.63;6222047;23;20024;-83
2021/01/03 04:40:46;;;;;;;50.03;25.35;;;;;;;-143.98;100.00;68091.63;6200320;23;20542;-83
2021/01/03 04:43:16;;;;;;;57.55;25.17;;;;;;;-143.98;100.00;68091.63;6197996;23;20029;-84
2021/01/03 04:45:43;;;;;;;51.60;24.95;;;;;;;-143.98;100.00;68091.63;6223138;23;20017;-84
2021/01/03 04:48:29;;;;;;;56.65;26.58;;;;;;;-143.98;100.00;68091.63;6223873;23;20029;-83
2021/01/03 04:51:15;;;;;;;57.38;26.02;;;;;;;-143.98;100.00;68091.63;6199156;23;20028;-84
2021/01/03 04:53:55;;;;;;;59.80;26.48;;;;;;;-143.98;100.00;68091.63;6200512;23;20039;-83
2021/01/03 04:56:55;;;;;;;59.30;27.52;;;;;;;-143.98;100.00;68091.63;6209119;23;20080;-85
2021/01/03 04:59:40;;;;;;;51.13;25.13;;;;;;;-143.98;100.00;68091.63;6220966;23;20045;-85
2021/01/03 05:02:16;;;;;;;56.40;25.10;;;;;;;-143.98;100.00;68091.63;6198506;23;20028;-84
2021/01/03 05:05:08;;;;;;;51.97;25.20;;;;;;;-143.98;100.00;68091.63;6233025;23;20025;-84
2021/01/03 05:07:39;;;;;;;51.08;23.70;;;;;;;-143.98;100.00;68091.63;6216202;23;19996;-84
2021/01/03 05:10:12;;;;;;;52.35;24.48;;;;;;;-143.98;100.00;68091.63;6243018;22;20016;-83
2021/01/03 05:12:58;;;;;;;55.92;25.45;;;;;;;-143.98;100.00;68091.63;6240162;23;20024;-83
2021/01/03 05:15:33;;;;;;;57.33;26.10;;;;;;;-143.98;100.00;68091.63;6225997;23;20084;-84
2021/01/03 05:18:01;;;;;;;57.95;27.30;;;;;;;-143.98;100.00;68091.63;6226650;23;20028;-84
2021/01/03 05:20:28;;;;;;;51.83;25.17;;;;;;;-143.98;100.00;68091.63;6203062;23;20028;-84
2021/01/03 05:23:18;;;;;;;59.30;26.67;;;;;;;-143.98;100.00;68091.63;6213135;23;20035;-84
2021/01/03 05:25:46;;;;;;;57.70;26.52;;;;;;;-143.98;100.00;68091.63;6212548;23;20038;-83
2021/01/03 05:28:27;;;;;;;56.42;25.92;;;;;;;-143.98;100.00;68091.63;6233723;23;20072;-84
2021/01/03 05:31:17;;;;;;;50.75;25.33;;;;;;;-143.98;100.00;68091.63;6204501;23;20056;-84
2021/01/03 05:33:57;;;;;;;58.95;27.48;;;;;;;-143.98;100.00;68091.63;6230940;22;20029;-83
2021/01/03 05:36:44;;;;;;;58.92;27.45;;;;;;;-143.98;100.00;68091.63;6202049;23;20386;-82
2021/01/03 05:39:22;;;;;;;54.67;25.35;;;;;;;-143.98;100.00;68091.63;6221204;23;20025;-83
2021/01/03 05:42:13;;;;;;;56.22;27.17;;;;;;;-143.98;100.00;68091.63;6222115;23;20039;-83
2021/01/03 05:44:41;;;;;;;61.05;26.98;;;;;;;-143.98;100.00;68091.63;6223479;23;20050;-83
2021/01/03 05:47:20;;;;;;;65.05;27.75;;;;;;;-143.98;100.00;68091.63;6222813;23;20151;-83
2021/01/03 05:50:08;;;;;;;61.80;26.95;;;;;;;-143.98;100.00;68091.63;6196205;23;20088;-83
2021/01/03 05:52:49;;;;;;;62.75;27.88;;;;;;;-143.98;100.00;68091.63;6196854;23;20084;-83
2021/01/03 05:55:22;;;;;;;69.30;28.75;;;;;;;-143.98;100.00;68091.63;6223220;23;20048;-83
2021/01/03 05:57:49;;;;;;;61.42;28.48;;;;;;;-143.98;100.00;68091.63;6222499;23;20055;-83
2021/01/03 06:00:18;;;;;;;65.32;29.75;;;;;;;-143.98;100.00;68091.63;6222024;23;20025;-83
2021/01/03 06:02:44;;;;;;;65.35;29.08;;;;;;;-143.98;100.00;68091.63;6221715;23;20032;-82
2021/01/03 06:05:19;;;;;;;67.45;29.00;;;;;;;-143.98;100.00;68091.63;6223415;23;20021;-82
2021/01/03 06:08:04;;;;;;;63.95;27.70;;;;;;;-143.98;100.00;68091.63;6222106;23;20024;-82
2021/01/03 06:10:52;;;;;;;74.10;30.50;;;;;;;-143.98;100.00;68091.63;6226604;23;20025;-83
2021/01/03 06:13:24;;;;;;;58.88;26.83;;;;;;;-143.98;100.00;68091.63;6223156;23;20024;-83
2021/01/03 06:15:58;;;;;;;55.15;26.05;;;;;;;-143.98;100.00;68091.63;6223059;23;20024;-83
2021/01/03 06:18:43;;;;;;;63.85;28.08;;;;;;;-143.98;100.00;68091.63;6222139;23;20261;-83
2021/01/03 06:21:36;;;;;;;66.47;28.13;;;;;;;-143.98;100.00;68091.63;6224242;23;20287;-83
2021/01/03 06:24:12;;;;;;;57.08;25.95;;;;;;;-143.98;100.00;68091.63;6223575;23;20044;-82
2021/01/03 06:27:01;;;;;;;62.45;26.25;;;;;;;-143.98;100.00;68091.63;6224820;23;20028;-82
2021/01/03 06:29:37;;;;;;;63.35;27.98;;;;;;;-143.98;100.00;68091.63;6201038;23;20350;-82
2021/01/03 06:32:07;;;;;;;58.53;26.38;;;;;;;-143.98;100.00;68091.63;6227681;23;20048;-82
2021/01/03 06:34:43;;;;;;;55.78;24.75;;;;;;;-143.98;100.00;68091.63;6187525;23;20056;-82
2021/01/03 06:37:27;;;;;;;49.57;24.27;;;;;;;-143.98;100.00;68091.63;6161024;23;20213;-82
2021/01/03 06:40:07;;;;;;;58.22;25.08;;;;;;;-143.98;100.00;68091.63;6146665;23;20029;-82
2021/01/03 06:42:51;;;;;;;62.72;27.05;;;;;;;-143.98;100.00;68091.63;6144375;23;20045;-82
2021/01/03 06:48:59;;;;;;;59.42;25.30;;;;;;;-143.98;100.00;68091.63;6184599;23;20060;-83
2021/01/03 06:51:31;;;;;;;50.70;22.48;;;;;;;-143.98;100.00;68091.63;6194700;23;20090;-83
2021/01/03 06:53:57;;;;;;;53.53;23.83;;;;;;;-143.98;100.00;68091.63;6194812;23;20484;-83
2021/01/03 06:57:17;;;;;;;47.38;22.67;;;;;;;-143.98;100.00;68091.63;6194795;23;20055;-83
2021/01/03 06:59:59;;;;;;;50.70;23.30;;;;;;;-143.98;100.00;68091.63;6195288;23;20060;-83
2021/01/03 07:02:30;;;;;;;47.38;21.75;;;;;;;-143.98;100.00;68091.63;6195433;23;20391;-83
2021/01/03 07:05:07;;;;;;;46.97;22.83;;;;;;;-143.98;100.00;68091.63;6144722;23;20025;-83
2021/01/03 07:07:56;;;;;;;48.00;23.02;;;;;;;-143.98;100.00;68091.63;6170252;23;20028;-83
2021/01/03 07:10:42;;;;;;;48.03;21.05;;;;;;;-143.98;100.00;68091.63;6146799;23;20057;-83
2021/01/03 07:13:41;;;;;;;41.15;20.85;;;;;;;-143.98;100.00;68091.63;6145467;23;20029;-83
2021/01/03 07:16:10;;;;;;;42.85;20.85;;;;;;;-143.98;100.00;68091.63;6105732;23;20029;-83
2021/01/03 07:18:49;;;;;;;46.67;21.33;;;;;;;-143.98;100.00;68091.63;6169930;23;20039;-83
2021/01/03 07:21:37;;;;;;;43.83;20.67;;;;;;;-143.98;100.00;68091.63;6169470;23;20339;-83
2021/01/03 07:24:36;;;;;;;42.67;20.33;;;;;;;-143.98;100.00;68091.63;6169236;23;20060;-83
2021/01/03 07:27:25;;;;;;;45.45;20.77;;;;;;;-143.98;100.00;68091.63;6144933;23;20079;-83
2021/01/03 07:29:54;;;;;;;44.67;21.38;;;;;;;-143.98;100.00;68091.63;6194503;23;20399;-83
2021/01/03 07:32:40;;;;;;;47.58;22.13;;;;;;;-143.98;100.00;68091.63;6197135;23;20029;-83
2021/01/03 07:35:11;;;;;;;49.88;22.55;;;;;;;-143.98;100.00;68091.63;6225298;23;20029;-83
2021/01/03 07:37:41;;;;;;;51.22;23.50;;;;;;;-143.98;100.00;68091.63;6225816;23;20040;-83
2021/01/03 07:40:09;;;;;;;51.90;23.35;;;;;;;-143.98;100.00;68091.63;6201638;23;20085;-83
2021/01/03 07:42:44;;;;;;;47.13;22.73;;;;;;;-143.98;100.00;68091.63;6226614;23;20024;-83
2021/01/03 07:45:13;;;;;;;51.17;22.73;;;;;;;-143.98;100.00;68091.63;6235463;23;20051;-82
2021/01/03 07:48:24;;;;;;;54.25;24.33;;;;;;;-143.98;100.00;68091.63;6241741;22;20064;-82
2021/01/03 07:50:51;;;;;;;52.45;24.40;;;;;;;-143.98;100.00;68091.63;6226292;23;20055;-82
2021/01/03 07:53:34;;;;;;;52.80;22.55;;;;;;;-143.98;100.00;68091.63;6226100;23;20454;-82
2021/01/03 07:56:26;;;;;;;42.38;21.38;;;;;;;-143.98;100.00;68091.63;6198747;23;20477;-82
2021/01/03 07:58:59;;;;;;;49.95;22.63;;;;;;;-143.98;100.00;68091.63;6199759;23;20080;-84
2021/01/03 08:01:34;;;;;;;47.28;21.52;;;;;;;-143.98;100.00;68091.63;6223840;23;20448;-83
2021/01/03 08:04:24;;;;;;;45.33;21.55;;;;;;;-143.98;100.00;68091.63;6223165;23;20028;-83
2021/01/03 08:06:51;;;;;;;46.08;21.65;;;;;;;-143.98;100.00;68091.63;6198454;23;20048;-84
2021/01/03 08:09:26;;;;;;;43.00;22.10;;;;;;;-143.98;100.00;68091.63;6221625;23;20025;-83
2021/01/03 08:12:21;;;;;;;52.05;22.05;;;;;;;-143.98;100.00;68091.63;6221383;23;20032;-83
2021/01/03 08:14:50;;;;;;;50.15;23.10;;;;;;;-143.98;100.00;68091.63;6220927;23;20026;-83
2021/01/03 08:17:42;;;;;;;47.65;23.85;;;;;;;-143.98;100.00;68091.63;6221811;23;20028;-83
2021/01/03 08:20:23;;;;;;;45.53;22.33;;;;;;;-143.98;100.00;68091.63;6198987;23;20024;-83
2021/01/03 08:23:11;;;;;;;50.35;24.75;;;;;;;-143.98;100.00;68091.63;6223577;23;20028;-82
2021/01/03 08:25:39;;;;;;;51.38;23.90;;;;;;;-143.98;100.00;68091.63;6223487;23;20028;-82
2021/01/03 08:28:09;;;;;;;47.15;24.00;;;;;;;-143.98;100.00;68091.63;6198205;23;20483;-83
2021/01/03 08:30:38;;;;;;;52.92;23.85;;;;;;;-143.98;100.00;68091.63;6199301;23;20024;-82
2021/01/03 08:33:23;;;;;;;55.20;24.00;;;;;;;-143.98;100.00;68091.63;6197883;23;20028;-83
2021/01/03 08:35:50;;;;;;;49.03;23.17;;;;;;;-143.98;100.00;68091.63;6196771;23;20080;-82
2021/01/03 08:38:27;;;;;;;51.78;23.70;;;;;;;-143.98;100.00;68091.63;6196804;23;20035;-83
2021/01/03 08:41:03;;;;;;;45.70;22.45;;;;;;;-143.98;100.00;68091.63;6198550;23;20068;-83
2021/01/03 08:43:31;;;;;;;45.63;20.60;;;;;;;-143.98;100.00;68091.63;6222449;23;20033;-83
2021/01/03 08:46:04;;;;;;;45.38;21.02;;;;;;;-143.98;100.00;68091.63;6222600;23;20515;-83
2021/01/03 08:48:34;;;;;;;46.80;22.30;;;;;;;-143.98;100.00;68091.63;6222823;23;20407;-83
2021/01/03 08:51:19;;;;;;;48.92;21.05;;;;;;;-143.98;100.00;68091.63;6199050;23;20036;-83
2021/01/03 08:54:05;;;;;;;50.63;22.00;;;;;;;-143.98;100.00;68091.63;6223633;23;20220;-83
2021/01/03 08:56:45;;;;;;;44.20;20.63;;;;;;;-143.98;100.00;68091.63;6222413;23;20079;-83
2021/01/03 08:59:15;;;;;;;46.95;20.33;;;;;;;-143.98;100.00;68091.63;6222143;23;20139;-83
2021/01/03 09:01:45;;;;;;;45.13;20.38;;;;;;;-143.98;100.00;68091.63;6222371;23;20497;-83
2021/01/03 09:04:35;;;;;;;47.88;20.95;;;;;;;-143.98;100.00;68091.63;6198484;23;20071;-82
2021/01/03 09:07:07;;;;;;;48.63;21.88;;;;;;;-143.98;100.00;68091.63;6219521;23;20017;-82
2021/01/03 09:09:35;;;;;;;44.72;19.98;;;;;;;-143.98;100.00;68091.63;6197193;23;20028;-82
2021/01/03 09:12:06;;;;;;;45.00;20.10;;;;;;;-143.98;100.00;68091.63;6220602;23;20486;-82
2021/01/03 09:14:38;;;;;;;46.53;21.40;;;;;;;-143.98;100.00;68091.63;6221697;23;20059;-82
2021/01/03 09:17:10;;;;;;;45.35;20.92;;;;;;;-143.98;100.00;68091.63;6222962;23;20030;-83
2021/01/03 09:20:09;;;;;;;43.78;19.80;;;;;;;-143.98;100.00;68091.63;6222872;23;20024;-82
2021/01/03 09:22:40;;;;;;;42.55;20.50;;;;;;;-143.98;100.00;68091.63;6222619;23;20309;-83
2021/01/03 09:25:13;;;;;;;40.92;18.60;;;;;;;-143.98;100.00;68091.63;6175285;23;20099;-82
2021/01/03 09:27:58;;;;;;;42.17;17.90;;;;;;;-143.98;100.00;68091.63;6221808;23;20025;-83
2021/01/03 09:30:24;;;;;;;37.78;18.58;;;;;;;-143.98;100.00;68091.63;6197051;23;20456;-82
2021/01/03 09:33:23;;;;;;;39.33;18.75;;;;;;;-143.98;100.00;68091.63;6220963;23;20029;-83
2021/01/03 09:36:10;;;;;;;33.45;15.93;;;;;;;-143.98;100.00;68091.63;6220549;23;20032;-82
2021/01/03 09:38:42;;;;;;;37.78;17.98;;;;;;;-143.98;100.00;68091.63;6222660;23;20025;-83
2021/01/03 09:41:27;;;;;;;32.72;16.20;;;;;;;-143.98;100.00;68091.63;6221899;23;20036;-83
2021/01/03 09:44:06;;;;;;;34.08;16.27;;;;;;;-143.98;100.00;68091.63;6203004;23;20040;-83
2021/01/03 09:46:40;;;;;;;36.20;17.00;;;;;;;-143.98;100.00;68091.63;6224560;23;20078;-83
2021/01/03 09:49:22;;;;;;;32.25;15.60;;;;;;;-143.98;100.00;68091.63;6197957;23;20024;-83
2021/01/03 09:52:46;;;;;;;28.90;14.18;;;;;;;-143.98;100.00;68091.63;6221626;23;20614;-82
2021/01/03 09:55:27;;;;;;;25.75;13.98;;;;;;;-143.98;100.00;68091.63;6223674;23;20036;-83
2021/01/03 09:58:35;;;;;;;28.10;13.43;;;;;;;-143.98;100.00;68091.63;6201959;23;20024;-83
2021/01/03 10:01:45;;;;;;;27.73;12.68;;;;;;;-143.98;100.00;68091.63;6223109;23;20052;-82
2021/01/03 10:04:17;;;;;;;24.40;13.13;;;;;;;-143.98;100.00;68091.63;6223532;23;20044;-82
2021/01/03 10:06:51;;;;;;;24.80;12.65;;;;;;;-143.98;100.00;68091.63;6225078;23;20025;-82
2021/01/03 10:09:31;;;;;;;18.65;9.93;;;;;;;-143.98;100.00;68091.63;6201051;23;20293;-82
2021/01/03 10:12:21;;;;;;;17.42;9.50;;;;;;;-143.98;100.00;68091.63;6215467;22;20005;-82
2021/01/03 10:15:09;;;;;;;13.82;7.85;;;;;;;-143.98;100.00;68091.63;6242077;22;20016;-82
2021/01/03 10:17:36;;;;;;;13.10;7.68;;;;;;;-143.98;100.00;68091.63;6229517;23;20035;-85
2021/01/03 10:20:50;;;;;;;13.18;7.20;;;;;;;-143.98;100.00;68091.63;6203374;23;20024;-83
2021/01/03 10:23:39;;;;;;;12.90;7.30;;;;;;;-143.98;100.00;68091.63;6237712;23;20078;-83
2021/01/03 10:26:19;;;;;;;12.63;6.97;;;;;;;-143.98;100.00;68091.63;6216221;23;20039;-83
2021/01/03 10:28:46;;;;;;;14.20;7.18;;;;;;;-143.98;100.00;68091.63;6228604;23;20548;-83
2021/01/03 10:31:16;;;;;;;12.18;7.18;;;;;;;-143.98;100.00;68091.63;6222939;23;20052;-83
2021/01/03 10:33:43;;;;;;;13.10;7.13;;;;;;;-143.98;100.00;68091.63;6199366;23;20028;-83
2021/01/03 10:39:30;;;;;;;16.25;8.13;;;;;;;-143.98;100.00;68091.63;6239393;23;20024;-83
2021/01/03 10:42:04;;;;;;;13.73;7.65;;;;;;;-143.98;100.00;68091.63;6200677;23;20035;-83
2021/01/03 10:44:39;;;;;;;13.57;7.55;;;;;;;-143.98;100.00;68091.63;6222930;23;20035;-83
2021/01/03 10:47:06;;;;;;;15.20;8.35;;;;;;;-143.98;100.00;68091.63;6222411;23;20119;-83
2021/01/03 10:49:40;;;;;;;16.55;8.65;;;;;;;-143.98;100.00;68091.63;6224643;23;20024;-82
2021/01/03 10:52:07;;;;;;;16.02;8.75;;;;;;;-143.98;100.00;68091.63;6213322;23;20024;-82
2021/01/03 10:54:34;;;;;;;15.13;8.30;;;;;;;-143.98;100.00;68091.63;6241579;22;20021;-80
2021/01/03 10:57:06;;;;;;;12.85;7.55;;;;;;;-143.98;100.00;68091.63;6241002;22;20013;-82
2021/01/03 10:59:34;;;;;;;15.95;8.93;;;;;;;-143.98;100.00;68091.63;6213100;23;20024;-81
2021/01/03 11:02:01;;;;;;;15.65;9.23;;;;;;;-143.98;100.00;68091.63;6200448;23;20029;-83
2021/01/03 11:04:30;;;;;;;17.02;8.73;;;;;;;-143.98;100.00;68091.63;6197086;23;20028;-83
2021/01/03 11:06:58;;;;;;;15.77;9.13;;;;;;;-143.98;100.00;68091.63;6199358;23;20024;-83
2021/01/03 11:09:30;;;;;;;16.40;9.43;;;;;;;-143.98;100.00;68091.63;6196897;23;20466;-83
2021/01/03 11:12:10;;;;;;;15.27;8.93;;;;;;;-143.98;100.00;68091.63;6196873;23;20086;-83
2021/01/03 11:14:37;;;;;;;15.65;10.07;;;;;;;-143.98;100.00;68091.63;6196042;23;20024;-83
2021/01/03 11:17:37;;;;;;;16.92;9.55;;;;;;;-143.98;100.00;68091.63;6197597;23;20115;-82
2021/01/03 11:20:05;;;;;;;15.85;9.18;;;;;;;-143.98;100.00;68091.63;6224631;23;20028;-81
2021/01/03 11:22:40;;;;;;;14.07;8.77;;;;;;;-143.98;100.00;68091.63;6198970;23;20064;-83
2021/01/03 11:25:11;;;;;;;16.52;9.68;;;;;;;-143.98;100.00;68091.63;6222481;23;20035;-83
2021/01/03 11:27:57;;;;;;;15.68;8.70;;;;;;;-143.98;100.00;68091.63;6199406;23;20655;-83
2021/01/03 11:30:24;;;;;;;13.80;8.05;;;;;;;-143.98;100.00;68091.63;6196347;23;20028;-84
2021/01/03 11:32:50;;;;;;;14.68;8.60;;;;;;;-143.98;100.00;68091.63;6222393;23;20036;-84
2021/01/03 11:35:18;;;;;;;13.32;8.85;;;;;;;-143.98;100.00;68091.63;6220650;23;20093;-84
2021/01/03 11:37:47;;;;;;;10.73;7.22;;;;;;;-143.98;100.00;68091.63;6196544;23;20032;-83